sensor_id;sensor_type;location;lat;lon;timestamp;P1;durP1;ratioP1;P2;durP2;ratioP2
18162;SDS011;9206;50.994;4.538;2023-11-21T00:00:32;66.77;;;32.53;;
18162;SDS011;9206;50.994;4.538;2023-11-21T00:03:22;70.73;;;34.67;;
18162;SDS011;9206;50.994;4.538;2023-11-21T00:06:11;65.07;;;32.17;;
18162;SDS011;9206;50.994;4.538;2023-11-21T00:09:06;65.07;;;33.43;;
18162;SDS011;9206;50.994;4.538;2023-11-21T00:12:07;71.40;;;34.90;;
18162;SDS011;9206;50.994;4.538;2023-11-21T00:14:58;61.13;;;31.00;;
18162;SDS011;9206;50.994;4.538;2023-11-21T00:17:45;64.77;;;31.17;;
18162;SDS011;9206;50.994;4.538;2023-11-21T00:20:32;75.47;;;35.20;;
18162;SDS011;9206;50.994;4.538;2023-11-21T00:23:22;68.80;;;33.87;;
18162;SDS011;9206;50.994;4.538;2023-11-21T00:26:10;62.40;;;32.53;;
18162;SDS011;9206;50.994;4.538;2023-11-21T00:28:59;73.53;;;31.83;;
18162;SDS011;9206;50.994;4.538;2023-11-21T00:31:47;57.20;;;30.77;;
18162;SDS011;9206;50.994;4.538;2023-11-21T00:34:40;57.47;;;29.47;;
18162;SDS011;9206;50.994;4.538;2023-11-21T00:37:30;59.87;;;31.63;;
18162;SDS011;9206;50.994;4.538;2023-11-21T00:40:18;52.03;;;28.30;;
18162;SDS011;9206;50.994;4.538;2023-11-21T00:43:07;63.97;;;30.53;;
18162;SDS011;9206;50.994;4.538;2023-11-21T00:45:57;66.33;;;29.27;;
18162;SDS011;9206;50.994;4.538;2023-11-21T00:48:47;60.17;;;28.87;;
18162;SDS011;9206;50.994;4.538;2023-11-21T00:51:35;53.87;;;28.37;;
18162;SDS011;9206;50.994;4.538;2023-11-21T00:54:26;59.50;;;27.70;;
18162;SDS011;9206;50.994;4.538;2023-11-21T00:57:20;84.60;;;31.10;;
18162;SDS011;9206;50.994;4.538;2023-11-21T01:00:14;65.43;;;31.00;;
18162;SDS011;9206;50.994;4.538;2023-11-21T01:03:06;79.60;;;32.50;;
18162;SDS011;9206;50.994;4.538;2023-11-21T01:05:56;82.50;;;33.17;;
18162;SDS011;9206;50.994;4.538;2023-11-21T01:08:43;78.67;;;33.03;;
18162;SDS011;9206;50.994;4.538;2023-11-21T01:11:34;78.43;;;33.17;;
18162;SDS011;9206;50.994;4.538;2023-11-21T01:14:22;75.83;;;33.03;;
18162;SDS011;9206;50.994;4.538;2023-11-21T01:17:13;87.57;;;33.70;;
18162;SDS011;9206;50.994;4.538;2023-11-21T01:20:06;86.97;;;33.97;;
18162;SDS011;9206;50.994;4.538;2023-11-21T01:23:03;76.17;;;33.93;;
18162;SDS011;9206;50.994;4.538;2023-11-21T01:25:50;79.73;;;31.83;;
18162;SDS011;9206;50.994;4.538;2023-11-21T01:28:38;70.87;;;30.83;;
18162;SDS011;9206;50.994;4.538;2023-11-21T01:31:31;72.73;;;32.63;;
18162;SDS011;9206;50.994;4.538;2023-11-21T01:34:36;76.13;;;31.57;;
18162;SDS011;9206;50.994;4.538;2023-11-21T01:37:26;92.87;;;33.97;;
18162;SDS011;9206;50.994;4.538;2023-11-21T01:40:14;82.87;;;32.83;;
18162;SDS011;9206;50.994;4.538;2023-11-21T01:43:07;82.90;;;32.40;;
18162;SDS011;9206;50.994;4.538;2023-11-21T01:45:55;85.80;;;33.00;;
18162;SDS011;9206;50.994;4.538;2023-11-21T01:48:51;71.90;;;30.27;;
18162;SDS011;9206;50.994;4.538;2023-11-21T01:51:40;85.50;;;31.50;;
18162;SDS011;9206;50.994;4.538;2023-11-21T01:54:38;68.00;;;29.30;;
18162;SDS011;9206;50.994;4.538;2023-11-21T01:57:26;89.17;;;30.93;;
18162;SDS011;9206;50.994;4.538;2023-11-21T02:00:19;75.90;;;30.17;;
18162;SDS011;9206;50.994;4.538;2023-11-21T02:03:07;70.87;;;28.33;;
18162;SDS011;9206;50.994;4.538;2023-11-21T02:06:01;79.13;;;29.13;;
18162;SDS011;9206;50.994;4.538;2023-11-21T02:08:50;92.87;;;31.50;;
18162;SDS011;9206;50.994;4.538;2023-11-21T02:11:45;79.60;;;29.87;;
18162;SDS011;9206;50.994;4.538;2023-11-21T02:17:29;74.30;;;29.80;;
18162;SDS011;9206;50.994;4.538;2023-11-21T02:20:20;76.20;;;29.07;;
18162;SDS011;9206;50.994;4.538;2023-11-21T02:23:17;73.70;;;27.73;;
18162;SDS011;9206;50.994;4.538;2023-11-21T02:26:05;65.33;;;27.40;;
18162;SDS011;9206;50.994;4.538;2023-11-21T02:28:53;71.40;;;28.17;;
18162;SDS011;9206;50.994;4.538;2023-11-21T02:31:47;59.53;;;25.33;;
18162;SDS011;9206;50.994;4.538;2023-11-21T02:37:31;76.07;;;27.47;;
18162;SDS011;9206;50.994;4.538;2023-11-21T02:43:17;73.33;;;28.13;;
18162;SDS011;9206;50.994;4.538;2023-11-21T02:46:13;67.70;;;27.87;;
18162;SDS011;9206;50.994;4.538;2023-11-21T02:49:03;71.73;;;28.33;;
18162;SDS011;9206;50.994;4.538;2023-11-21T02:51:52;66.57;;;27.67;;
18162;SDS011;9206;50.994;4.538;2023-11-21T02:54:46;71.50;;;28.63;;
18162;SDS011;9206;50.994;4.538;2023-11-21T02:57:36;80.33;;;29.00;;
18162;SDS011;9206;50.994;4.538;2023-11-21T03:00:24;63.10;;;24.70;;
18162;SDS011;9206;50.994;4.538;2023-11-21T03:03:11;52.70;;;23.43;;
18162;SDS011;9206;50.994;4.538;2023-11-21T03:06:00;53.40;;;22.40;;
18162;SDS011;9206;50.994;4.538;2023-11-21T03:08:47;70.93;;;28.30;;
18162;SDS011;9206;50.994;4.538;2023-11-21T03:11:35;66.43;;;27.23;;
18162;SDS011;9206;50.994;4.538;2023-11-21T03:17:34;64.63;;;25.87;;
18162;SDS011;9206;50.994;4.538;2023-11-21T03:23:14;62.30;;;24.03;;
18162;SDS011;9206;50.994;4.538;2023-11-21T03:26:11;59.97;;;23.83;;
18162;SDS011;9206;50.994;4.538;2023-11-21T03:29:00;66.40;;;25.63;;
18162;SDS011;9206;50.994;4.538;2023-11-21T03:31:51;55.30;;;23.53;;
18162;SDS011;9206;50.994;4.538;2023-11-21T03:34:52;66.10;;;25.97;;
18162;SDS011;9206;50.994;4.538;2023-11-21T03:37:43;60.03;;;24.27;;
18162;SDS011;9206;50.994;4.538;2023-11-21T03:40:37;64.83;;;25.07;;
18162;SDS011;9206;50.994;4.538;2023-11-21T03:43:24;50.13;;;22.03;;
18162;SDS011;9206;50.994;4.538;2023-11-21T03:51:55;70.33;;;28.83;;
18162;SDS011;9206;50.994;4.538;2023-11-21T03:54:49;69.60;;;28.03;;
18162;SDS011;9206;50.994;4.538;2023-11-21T03:57:39;67.40;;;26.50;;
18162;SDS011;9206;50.994;4.538;2023-11-21T04:00:27;73.13;;;27.33;;
18162;SDS011;9206;50.994;4.538;2023-11-21T04:03:16;55.63;;;24.93;;
18162;SDS011;9206;50.994;4.538;2023-11-21T04:06:07;67.30;;;26.23;;
18162;SDS011;9206;50.994;4.538;2023-11-21T04:09:01;62.03;;;25.93;;
18162;SDS011;9206;50.994;4.538;2023-11-21T04:11:49;65.30;;;26.60;;
18162;SDS011;9206;50.994;4.538;2023-11-21T04:14:44;59.47;;;25.70;;
18162;SDS011;9206;50.994;4.538;2023-11-21T04:17:32;55.30;;;24.17;;
18162;SDS011;9206;50.994;4.538;2023-11-21T04:20:23;70.47;;;26.23;;
18162;SDS011;9206;50.994;4.538;2023-11-21T04:23:13;58.77;;;24.53;;
18162;SDS011;9206;50.994;4.538;2023-11-21T04:26:00;62.57;;;24.70;;
18162;SDS011;9206;50.994;4.538;2023-11-21T04:28:50;57.53;;;24.10;;
18162;SDS011;9206;50.994;4.538;2023-11-21T04:31:41;66.17;;;25.93;;
18162;SDS011;9206;50.994;4.538;2023-11-21T04:34:30;51.70;;;23.50;;
18162;SDS011;9206;50.994;4.538;2023-11-21T04:37:21;51.00;;;23.73;;
18162;SDS011;9206;50.994;4.538;2023-11-21T04:40:17;58.57;;;23.97;;
18162;SDS011;9206;50.994;4.538;2023-11-21T04:43:09;49.77;;;22.37;;
18162;SDS011;9206;50.994;4.538;2023-11-21T04:45:56;53.87;;;22.30;;
18162;SDS011;9206;50.994;4.538;2023-11-21T04:48:46;51.70;;;23.47;;
18162;SDS011;9206;50.994;4.538;2023-11-21T04:51:48;47.57;;;22.30;;
18162;SDS011;9206;50.994;4.538;2023-11-21T04:54:41;55.77;;;22.90;;
18162;SDS011;9206;50.994;4.538;2023-11-21T04:57:48;62.67;;;24.33;;
18162;SDS011;9206;50.994;4.538;2023-11-21T05:00:36;56.33;;;23.97;;
18162;SDS011;9206;50.994;4.538;2023-11-21T05:03:27;54.43;;;24.40;;
18162;SDS011;9206;50.994;4.538;2023-11-21T05:06:15;58.97;;;24.23;;
18162;SDS011;9206;50.994;4.538;2023-11-21T05:09:02;62.60;;;24.97;;
18162;SDS011;9206;50.994;4.538;2023-11-21T05:12:03;55.47;;;24.73;;
18162;SDS011;9206;50.994;4.538;2023-11-21T05:15:05;60.10;;;24.83;;
18162;SDS011;9206;50.994;4.538;2023-11-21T05:17:55;46.87;;;22.13;;
18162;SDS011;9206;50.994;4.538;2023-11-21T05:20:47;49.73;;;23.67;;
18162;SDS011;9206;50.994;4.538;2023-11-21T05:23:38;52.43;;;25.07;;
18162;SDS011;9206;50.994;4.538;2023-11-21T05:26:32;56.97;;;23.53;;
18162;SDS011;9206;50.994;4.538;2023-11-21T05:29:25;74.20;;;27.33;;
18162;SDS011;9206;50.994;4.538;2023-11-21T05:32:15;64.23;;;25.73;;
18162;SDS011;9206;50.994;4.538;2023-11-21T05:35:03;65.50;;;25.63;;
18162;SDS011;9206;50.994;4.538;2023-11-21T05:37:58;61.33;;;25.63;;
18162;SDS011;9206;50.994;4.538;2023-11-21T05:44:29;47.40;;;24.93;;
18162;SDS011;9206;50.994;4.538;2023-11-21T05:47:17;57.07;;;25.57;;
18162;SDS011;9206;50.994;4.538;2023-11-21T05:50:05;55.77;;;24.97;;
18162;SDS011;9206;50.994;4.538;2023-11-21T05:53:02;57.83;;;24.83;;
18162;SDS011;9206;50.994;4.538;2023-11-21T05:55:52;45.13;;;22.07;;
18162;SDS011;9206;50.994;4.538;2023-11-21T05:58:45;38.77;;;20.67;;
18162;SDS011;9206;50.994;4.538;2023-11-21T06:01:39;39.83;;;19.83;;
18162;SDS011;9206;50.994;4.538;2023-11-21T06:04:29;57.67;;;24.90;;
18162;SDS011;9206;50.994;4.538;2023-11-21T06:07:22;49.97;;;23.33;;
18162;SDS011;9206;50.994;4.538;2023-11-21T06:10:15;61.93;;;24.90;;
18162;SDS011;9206;50.994;4.538;2023-11-21T06:13:08;59.77;;;26.57;;
18162;SDS011;9206;50.994;4.538;2023-11-21T06:16:01;61.13;;;25.63;;
18162;SDS011;9206;50.994;4.538;2023-11-21T06:18:50;55.87;;;25.00;;
18162;SDS011;9206;50.994;4.538;2023-11-21T06:24:40;47.93;;;23.20;;
18162;SDS011;9206;50.994;4.538;2023-11-21T06:30:27;49.17;;;23.57;;
18162;SDS011;9206;50.994;4.538;2023-11-21T06:36:23;43.17;;;24.13;;
18162;SDS011;9206;50.994;4.538;2023-11-21T06:39:11;60.03;;;26.27;;
18162;SDS011;9206;50.994;4.538;2023-11-21T06:42:01;41.80;;;23.33;;
18162;SDS011;9206;50.994;4.538;2023-11-21T06:44:51;46.90;;;25.07;;
18162;SDS011;9206;50.994;4.538;2023-11-21T06:47:42;53.27;;;25.50;;
18162;SDS011;9206;50.994;4.538;2023-11-21T06:50:30;45.20;;;23.60;;
18162;SDS011;9206;50.994;4.538;2023-11-21T06:53:19;56.47;;;26.00;;
18162;SDS011;9206;50.994;4.538;2023-11-21T06:56:16;50.47;;;25.50;;
18162;SDS011;9206;50.994;4.538;2023-11-21T06:59:04;52.50;;;27.50;;
18162;SDS011;9206;50.994;4.538;2023-11-21T07:01:59;62.73;;;26.57;;
18162;SDS011;9206;50.994;4.538;2023-11-21T07:04:53;55.70;;;26.97;;
18162;SDS011;9206;50.994;4.538;2023-11-21T07:07:46;57.83;;;26.13;;
18162;SDS011;9206;50.994;4.538;2023-11-21T07:10:35;54.10;;;26.90;;
18162;SDS011;9206;50.994;4.538;2023-11-21T07:19:06;44.50;;;25.53;;
18162;SDS011;9206;50.994;4.538;2023-11-21T07:21:53;60.30;;;28.50;;
18162;SDS011;9206;50.994;4.538;2023-11-21T07:24:43;55.60;;;26.30;;
18162;SDS011;9206;50.994;4.538;2023-11-21T07:27:31;58.40;;;28.50;;
18162;SDS011;9206;50.994;4.538;2023-11-21T07:30:25;55.97;;;26.90;;
18162;SDS011;9206;50.994;4.538;2023-11-21T07:33:19;56.03;;;28.63;;
18162;SDS011;9206;50.994;4.538;2023-11-21T07:36:14;67.43;;;29.83;;
18162;SDS011;9206;50.994;4.538;2023-11-21T07:39:09;50.77;;;27.70;;
18162;SDS011;9206;50.994;4.538;2023-11-21T07:41:58;55.30;;;26.70;;
18162;SDS011;9206;50.994;4.538;2023-11-21T07:44:48;61.23;;;28.47;;
18162;SDS011;9206;50.994;4.538;2023-11-21T07:47:35;68.40;;;29.30;;
18162;SDS011;9206;50.994;4.538;2023-11-21T07:50:30;67.17;;;29.70;;
18162;SDS011;9206;50.994;4.538;2023-11-21T07:53:19;77.57;;;30.53;;
18162;SDS011;9206;50.994;4.538;2023-11-21T07:56:08;72.00;;;28.87;;
18162;SDS011;9206;50.994;4.538;2023-11-21T07:58:57;82.87;;;31.40;;
18162;SDS011;9206;50.994;4.538;2023-11-21T08:01:47;75.80;;;31.50;;
18162;SDS011;9206;50.994;4.538;2023-11-21T08:04:47;83.30;;;31.73;;
18162;SDS011;9206;50.994;4.538;2023-11-21T08:07:36;80.87;;;30.80;;
18162;SDS011;9206;50.994;4.538;2023-11-21T08:10:30;76.50;;;30.97;;
18162;SDS011;9206;50.994;4.538;2023-11-21T08:18:59;72.07;;;32.70;;
18162;SDS011;9206;50.994;4.538;2023-11-21T08:21:46;83.27;;;31.20;;
18162;SDS011;9206;50.994;4.538;2023-11-21T08:24:36;74.37;;;32.50;;
18162;SDS011;9206;50.994;4.538;2023-11-21T08:27:27;65.20;;;31.40;;
18162;SDS011;9206;50.994;4.538;2023-11-21T08:30:20;79.20;;;32.13;;
18162;SDS011;9206;50.994;4.538;2023-11-21T08:33:11;76.07;;;32.60;;
18162;SDS011;9206;50.994;4.538;2023-11-21T08:35:59;80.40;;;32.83;;
18162;SDS011;9206;50.994;4.538;2023-11-21T08:38:47;78.67;;;32.37;;
18162;SDS011;9206;50.994;4.538;2023-11-21T08:41:37;80.00;;;31.10;;
18162;SDS011;9206;50.994;4.538;2023-11-21T08:44:29;63.33;;;29.37;;
18162;SDS011;9206;50.994;4.538;2023-11-21T08:47:23;68.43;;;30.17;;
18162;SDS011;9206;50.994;4.538;2023-11-21T08:53:02;65.10;;;29.03;;
18162;SDS011;9206;50.994;4.538;2023-11-21T08:55:49;57.37;;;28.43;;
18162;SDS011;9206;50.994;4.538;2023-11-21T09:04:18;84.23;;;30.97;;
18162;SDS011;9206;50.994;4.538;2023-11-21T09:07:06;65.23;;;27.33;;
18162;SDS011;9206;50.994;4.538;2023-11-21T09:09:56;72.67;;;28.80;;
18162;SDS011;9206;50.994;4.538;2023-11-21T09:12:45;81.50;;;29.03;;
18162;SDS011;9206;50.994;4.538;2023-11-21T09:15:36;99.27;;;30.37;;
18162;SDS011;9206;50.994;4.538;2023-11-21T09:18:25;104.07;;;29.20;;
18162;SDS011;9206;50.994;4.538;2023-11-21T09:21:18;70.70;;;28.27;;
18162;SDS011;9206;50.994;4.538;2023-11-21T09:24:20;90.80;;;30.30;;
18162;SDS011;9206;50.994;4.538;2023-11-21T09:27:08;75.97;;;27.87;;
18162;SDS011;9206;50.994;4.538;2023-11-21T09:29:56;79.00;;;28.97;;
18162;SDS011;9206;50.994;4.538;2023-11-21T09:32:50;86.00;;;29.17;;
18162;SDS011;9206;50.994;4.538;2023-11-21T09:35:39;83.50;;;29.43;;
18162;SDS011;9206;50.994;4.538;2023-11-21T09:38:30;98.13;;;36.67;;
18162;SDS011;9206;50.994;4.538;2023-11-21T09:41:21;81.73;;;34.07;;
18162;SDS011;9206;50.994;4.538;2023-11-21T09:44:20;81.23;;;32.20;;
18162;SDS011;9206;50.994;4.538;2023-11-21T09:47:17;82.53;;;30.17;;
18162;SDS011;9206;50.994;4.538;2023-11-21T09:50:11;86.00;;;31.00;;
18162;SDS011;9206;50.994;4.538;2023-11-21T09:53:13;89.97;;;30.47;;
18162;SDS011;9206;50.994;4.538;2023-11-21T09:56:04;78.10;;;29.90;;
18162;SDS011;9206;50.994;4.538;2023-11-21T09:58:54;69.40;;;28.60;;
18162;SDS011;9206;50.994;4.538;2023-11-21T10:01:45;73.07;;;28.37;;
18162;SDS011;9206;50.994;4.538;2023-11-21T10:04:39;71.67;;;27.93;;
18162;SDS011;9206;50.994;4.538;2023-11-21T10:07:27;60.97;;;26.90;;
18162;SDS011;9206;50.994;4.538;2023-11-21T10:10:23;61.07;;;27.70;;
18162;SDS011;9206;50.994;4.538;2023-11-21T10:13:15;53.87;;;24.57;;
18162;SDS011;9206;50.994;4.538;2023-11-21T10:18:57;45.73;;;22.90;;
18162;SDS011;9206;50.994;4.538;2023-11-21T10:21:46;43.00;;;22.43;;
18162;SDS011;9206;50.994;4.538;2023-11-21T10:24:34;44.20;;;23.03;;
18162;SDS011;9206;50.994;4.538;2023-11-21T10:27:34;41.90;;;21.90;;
18162;SDS011;9206;50.994;4.538;2023-11-21T10:30:28;40.07;;;21.40;;
18162;SDS011;9206;50.994;4.538;2023-11-21T10:33:27;39.70;;;21.17;;
18162;SDS011;9206;50.994;4.538;2023-11-21T10:36:27;37.63;;;20.97;;
18162;SDS011;9206;50.994;4.538;2023-11-21T10:39:19;37.07;;;21.60;;
18162;SDS011;9206;50.994;4.538;2023-11-21T10:42:09;39.97;;;21.57;;
18162;SDS011;9206;50.994;4.538;2023-11-21T10:47:58;64.67;;;37.50;;
18162;SDS011;9206;50.994;4.538;2023-11-21T10:50:46;60.10;;;35.23;;
18162;SDS011;9206;50.994;4.538;2023-11-21T10:53:40;68.07;;;36.70;;
18162;SDS011;9206;50.994;4.538;2023-11-21T10:56:30;91.57;;;47.83;;
18162;SDS011;9206;50.994;4.538;2023-11-21T10:59:20;66.17;;;34.67;;
18162;SDS011;9206;50.994;4.538;2023-11-21T11:02:22;55.77;;;30.20;;
18162;SDS011;9206;50.994;4.538;2023-11-21T11:05:19;51.23;;;28.03;;
18162;SDS011;9206;50.994;4.538;2023-11-21T11:08:09;51.87;;;26.90;;
18162;SDS011;9206;50.994;4.538;2023-11-21T11:11:05;36.47;;;21.00;;
18162;SDS011;9206;50.994;4.538;2023-11-21T11:13:58;34.53;;;19.20;;
18162;SDS011;9206;50.994;4.538;2023-11-21T11:16:48;32.40;;;17.73;;
18162;SDS011;9206;50.994;4.538;2023-11-21T11:19:37;21.60;;;14.43;;
18162;SDS011;9206;50.994;4.538;2023-11-21T11:22:29;11.67;;;10.20;;
18162;SDS011;9206;50.994;4.538;2023-11-21T11:28:35;10.13;;;8.30;;
18162;SDS011;9206;50.994;4.538;2023-11-21T11:31:37;11.30;;;8.57;;
18162;SDS011;9206;50.994;4.538;2023-11-21T11:34:41;8.20;;;7.20;;
18162;SDS011;9206;50.994;4.538;2023-11-21T11:37:48;10.30;;;8.37;;
18162;SDS011;9206;50.994;4.538;2023-11-21T11:40:38;8.60;;;7.80;;
18162;SDS011;9206;50.994;4.538;2023-11-21T11:43:33;8.67;;;7.63;;
18162;SDS011;9206;50.994;4.538;2023-11-21T11:46:44;9.73;;;8.33;;
18162;SDS011;9206;50.994;4.538;2023-11-21T11:49:33;8.53;;;7.67;;
18162;SDS011;9206;50.994;4.538;2023-11-21T11:52:42;9.30;;;8.20;;
18162;SDS011;9206;50.994;4.538;2023-11-21T11:55:30;8.37;;;7.27;;
18162;SDS011;9206;50.994;4.538;2023-11-21T11:58:23;9.67;;;6.97;;
18162;SDS011;9206;50.994;4.538;2023-11-21T12:01:24;9.03;;;6.50;;
18162;SDS011;9206;50.994;4.538;2023-11-21T12:04:25;10.20;;;6.53;;
18162;SDS011;9206;50.994;4.538;2023-11-21T12:07:22;10.60;;;6.57;;
18162;SDS011;9206;50.994;4.538;2023-11-21T12:10:18;7.17;;;6.57;;
18162;SDS011;9206;50.994;4.538;2023-11-21T12:16:00;6.23;;;5.83;;
18162;SDS011;9206;50.994;4.538;2023-11-21T12:18:49;6.50;;;6.00;;
18162;SDS011;9206;50.994;4.538;2023-11-21T12:21:39;7.93;;;6.30;;
18162;SDS011;9206;50.994;4.538;2023-11-21T12:24:27;6.10;;;5.70;;
18162;SDS011;9206;50.994;4.538;2023-11-21T12:27:22;6.97;;;5.33;;
18162;SDS011;9206;50.994;4.538;2023-11-21T12:30:16;5.50;;;4.80;;
18162;SDS011;9206;50.994;4.538;2023-11-21T12:33:08;5.90;;;4.80;;
18162;SDS011;9206;50.994;4.538;2023-11-21T12:35:56;5.53;;;4.87;;
18162;SDS011;9206;50.994;4.538;2023-11-21T12:39:02;4.67;;;4.27;;
18162;SDS011;9206;50.994;4.538;2023-11-21T12:41:52;7.90;;;4.77;;
18162;SDS011;9206;50.994;4.538;2023-11-21T12:44:47;4.60;;;4.30;;
18162;SDS011;9206;50.994;4.538;2023-11-21T12:47:35;6.27;;;4.87;;
18162;SDS011;9206;50.994;4.538;2023-11-21T12:50:23;6.37;;;3.60;;
18162;SDS011;9206;50.994;4.538;2023-11-21T12:53:14;3.90;;;3.60;;
18162;SDS011;9206;50.994;4.538;2023-11-21T12:56:02;4.93;;;4.40;;
18162;SDS011;9206;50.994;4.538;2023-11-21T12:58:55;4.50;;;4.20;;
18162;SDS011;9206;50.994;4.538;2023-11-21T13:01:45;4.60;;;4.30;;
18162;SDS011;9206;50.994;4.538;2023-11-21T13:04:37;4.27;;;3.97;;
18162;SDS011;9206;50.994;4.538;2023-11-21T13:10:22;3.83;;;3.63;;
18162;SDS011;9206;50.994;4.538;2023-11-21T13:13:20;4.23;;;3.93;;
18162;SDS011;9206;50.994;4.538;2023-11-21T13:16:15;4.83;;;4.27;;
18162;SDS011;9206;50.994;4.538;2023-11-21T13:19:04;9.50;;;4.47;;
18162;SDS011;9206;50.994;4.538;2023-11-21T13:21:52;4.30;;;3.90;;
18162;SDS011;9206;50.994;4.538;2023-11-21T13:24:40;4.53;;;3.67;;
18162;SDS011;9206;50.994;4.538;2023-11-21T13:27:28;4.63;;;3.67;;
18162;SDS011;9206;50.994;4.538;2023-11-21T13:30:19;4.10;;;3.80;;
18162;SDS011;9206;50.994;4.538;2023-11-21T13:33:11;3.37;;;3.17;;
18162;SDS011;9206;50.994;4.538;2023-11-21T13:36:08;2.93;;;2.73;;
18162;SDS011;9206;50.994;4.538;2023-11-21T13:38:58;3.63;;;3.10;;
18162;SDS011;9206;50.994;4.538;2023-11-21T13:44:56;3.30;;;3.03;;
18162;SDS011;9206;50.994;4.538;2023-11-21T13:47:46;2.70;;;2.50;;
18162;SDS011;9206;50.994;4.538;2023-11-21T13:53:52;2.97;;;2.77;;
18162;SDS011;9206;50.994;4.538;2023-11-21T13:56:43;3.73;;;3.40;;
18162;SDS011;9206;50.994;4.538;2023-11-21T13:59:35;3.37;;;3.07;;
18162;SDS011;9206;50.994;4.538;2023-11-21T14:02:23;3.40;;;3.10;;
18162;SDS011;9206;50.994;4.538;2023-11-21T14:05:21;3.07;;;2.87;;
18162;SDS011;9206;50.994;4.538;2023-11-21T14:08:14;3.20;;;2.90;;
18162;SDS011;9206;50.994;4.538;2023-11-21T14:11:07;6.57;;;2.97;;
18162;SDS011;9206;50.994;4.538;2023-11-21T14:13:56;3.50;;;3.30;;
18162;SDS011;9206;50.994;4.538;2023-11-21T14:16:44;4.20;;;3.90;;
18162;SDS011;9206;50.994;4.538;2023-11-21T14:19:32;3.57;;;3.37;;
18162;SDS011;9206;50.994;4.538;2023-11-21T14:22:25;3.97;;;3.77;;
18162;SDS011;9206;50.994;4.538;2023-11-21T14:25:18;4.40;;;4.10;;
18162;SDS011;9206;50.994;4.538;2023-11-21T14:28:15;4.33;;;4.03;;
18162;SDS011;9206;50.994;4.538;2023-11-21T14:31:09;5.27;;;4.50;;
18162;SDS011;9206;50.994;4.538;2023-11-21T14:37:07;5.00;;;4.70;;
18162;SDS011;9206;50.994;4.538;2023-11-21T14:39:54;4.77;;;4.37;;
18162;SDS011;9206;50.994;4.538;2023-11-21T14:42:48;5.60;;;5.03;;
18162;SDS011;9206;50.994;4.538;2023-11-21T14:45:45;4.90;;;4.60;;
18162;SDS011;9206;50.994;4.538;2023-11-21T14:48:35;5.30;;;4.90;;
18162;SDS011;9206;50.994;4.538;2023-11-21T14:54:45;4.87;;;4.57;;
18162;SDS011;9206;50.994;4.538;2023-11-21T14:57:34;5.90;;;4.73;;
18162;SDS011;9206;50.994;4.538;2023-11-21T15:00:24;4.60;;;4.20;;
18162;SDS011;9206;50.994;4.538;2023-11-21T15:03:33;5.23;;;4.87;;
18162;SDS011;9206;50.994;4.538;2023-11-21T15:06:33;5.50;;;4.23;;
18162;SDS011;9206;50.994;4.538;2023-11-21T15:09:27;6.60;;;4.80;;
18162;SDS011;9206;50.994;4.538;2023-11-21T15:12:26;6.00;;;5.50;;
18162;SDS011;9206;50.994;4.538;2023-11-21T15:15:22;5.27;;;4.97;;
18162;SDS011;9206;50.994;4.538;2023-11-21T15:18:12;5.73;;;5.23;;
18162;SDS011;9206;50.994;4.538;2023-11-21T15:21:01;5.90;;;5.50;;
18162;SDS011;9206;50.994;4.538;2023-11-21T15:23:50;6.33;;;5.90;;
18162;SDS011;9206;50.994;4.538;2023-11-21T15:26:44;5.30;;;4.93;;
18162;SDS011;9206;50.994;4.538;2023-11-21T15:29:34;6.50;;;5.87;;
18162;SDS011;9206;50.994;4.538;2023-11-21T15:32:21;6.53;;;5.93;;
18162;SDS011;9206;50.994;4.538;2023-11-21T15:35:12;6.57;;;5.90;;
18162;SDS011;9206;50.994;4.538;2023-11-21T15:40:59;7.63;;;6.13;;
18162;SDS011;9206;50.994;4.538;2023-11-21T15:43:46;7.10;;;6.40;;
18162;SDS011;9206;50.994;4.538;2023-11-21T15:46:35;6.83;;;6.27;;
18162;SDS011;9206;50.994;4.538;2023-11-21T15:52:21;7.47;;;6.77;;
18162;SDS011;9206;50.994;4.538;2023-11-21T15:55:16;8.30;;;7.03;;
18162;SDS011;9206;50.994;4.538;2023-11-21T15:58:05;8.33;;;7.60;;
18162;SDS011;9206;50.994;4.538;2023-11-21T16:03:43;9.77;;;7.17;;
18162;SDS011;9206;50.994;4.538;2023-11-21T16:06:39;8.53;;;7.73;;
18162;SDS011;9206;50.994;4.538;2023-11-21T16:09:28;9.97;;;7.30;;
18162;SDS011;9206;50.994;4.538;2023-11-21T16:12:19;8.40;;;7.77;;
18162;SDS011;9206;50.994;4.538;2023-11-21T16:15:12;8.70;;;7.83;;
18162;SDS011;9206;50.994;4.538;2023-11-21T16:18:05;8.77;;;7.43;;
18162;SDS011;9206;50.994;4.538;2023-11-21T16:20:54;9.17;;;8.00;;
18162;SDS011;9206;50.994;4.538;2023-11-21T16:23:47;8.33;;;7.63;;
18162;SDS011;9206;50.994;4.538;2023-11-21T16:26:41;7.93;;;7.33;;
18162;SDS011;9206;50.994;4.538;2023-11-21T16:29:33;8.93;;;8.03;;
18162;SDS011;9206;50.994;4.538;2023-11-21T16:32:21;9.27;;;8.47;;
18162;SDS011;9206;50.994;4.538;2023-11-21T16:35:15;12.33;;;9.53;;
18162;SDS011;9206;50.994;4.538;2023-11-21T16:38:03;10.90;;;9.37;;
18162;SDS011;9206;50.994;4.538;2023-11-21T16:40:56;11.23;;;8.67;;
18162;SDS011;9206;50.994;4.538;2023-11-21T16:43:50;11.60;;;8.83;;
18162;SDS011;9206;50.994;4.538;2023-11-21T16:46:40;9.97;;;9.07;;
18162;SDS011;9206;50.994;4.538;2023-11-21T16:49:31;11.37;;;8.43;;
18162;SDS011;9206;50.994;4.538;2023-11-21T16:52:24;10.03;;;8.70;;
18162;SDS011;9206;50.994;4.538;2023-11-21T16:55:14;9.90;;;9.00;;
18162;SDS011;9206;50.994;4.538;2023-11-21T16:58:08;9.77;;;8.73;;
18162;SDS011;9206;50.994;4.538;2023-11-21T17:00:58;11.00;;;8.97;;
18162;SDS011;9206;50.994;4.538;2023-11-21T17:03:49;15.47;;;11.27;;
18162;SDS011;9206;50.994;4.538;2023-11-21T17:06:44;11.03;;;9.90;;
18162;SDS011;9206;50.994;4.538;2023-11-21T17:09:34;10.77;;;9.53;;
18162;SDS011;9206;50.994;4.538;2023-11-21T17:12:25;11.93;;;9.83;;
18162;SDS011;9206;50.994;4.538;2023-11-21T17:15:14;14.50;;;8.93;;
18162;SDS011;9206;50.994;4.538;2023-11-21T17:18:03;11.00;;;9.63;;
18162;SDS011;9206;50.994;4.538;2023-11-21T17:20:52;13.03;;;10.10;;
18162;SDS011;9206;50.994;4.538;2023-11-21T17:23:40;11.17;;;10.03;;
18162;SDS011;9206;50.994;4.538;2023-11-21T17:26:28;13.03;;;9.93;;
18162;SDS011;9206;50.994;4.538;2023-11-21T17:29:16;13.27;;;10.30;;
18162;SDS011;9206;50.994;4.538;2023-11-21T17:32:06;13.03;;;10.27;;
18162;SDS011;9206;50.994;4.538;2023-11-21T17:34:53;14.37;;;11.37;;
18162;SDS011;9206;50.994;4.538;2023-11-21T17:37:45;12.83;;;11.37;;
18162;SDS011;9206;50.994;4.538;2023-11-21T17:40:35;13.93;;;11.30;;
18162;SDS011;9206;50.994;4.538;2023-11-21T17:43:23;15.77;;;11.73;;
18162;SDS011;9206;50.994;4.538;2023-11-21T17:46:17;18.00;;;12.03;;
18162;SDS011;9206;50.994;4.538;2023-11-21T17:49:06;16.13;;;12.87;;
18162;SDS011;9206;50.994;4.538;2023-11-21T17:52:00;17.30;;;12.60;;
18162;SDS011;9206;50.994;4.538;2023-11-21T17:54:52;17.20;;;13.37;;
18162;SDS011;9206;50.994;4.538;2023-11-21T17:57:48;16.67;;;12.83;;
18162;SDS011;9206;50.994;4.538;2023-11-21T18:00:44;17.93;;;13.63;;
18162;SDS011;9206;50.994;4.538;2023-11-21T18:03:37;20.07;;;13.73;;
18162;SDS011;9206;50.994;4.538;2023-11-21T18:06:26;16.67;;;13.63;;
18162;SDS011;9206;50.994;4.538;2023-11-21T18:09:14;21.03;;;13.50;;
18162;SDS011;9206;50.994;4.538;2023-11-21T18:14:58;25.80;;;14.40;;
18162;SDS011;9206;50.994;4.538;2023-11-21T18:17:45;16.23;;;13.43;;
18162;SDS011;9206;50.994;4.538;2023-11-21T18:20:33;16.40;;;13.03;;
18162;SDS011;9206;50.994;4.538;2023-11-21T18:26:18;17.77;;;13.53;;
18162;SDS011;9206;50.994;4.538;2023-11-21T18:29:13;15.90;;;12.93;;
18162;SDS011;9206;50.994;4.538;2023-11-21T18:32:05;15.87;;;13.63;;
18162;SDS011;9206;50.994;4.538;2023-11-21T18:35:02;18.23;;;13.57;;
18162;SDS011;9206;50.994;4.538;2023-11-21T18:37:56;19.67;;;14.37;;
18162;SDS011;9206;50.994;4.538;2023-11-21T18:40:50;16.80;;;12.53;;
18162;SDS011;9206;50.994;4.538;2023-11-21T18:43:39;16.53;;;12.53;;